CheckWX is a tool to help pilots better visualize weather data.  It is not intended as a substitute for an official pre-flight weather briefing.

08:08:44 UTC

KIPT TAF
Williamsport Regional Airport
Williamsport, Pennsylvania, USA
KIPT 150522Z 1506/1606 00000KT P6SM SKC FM151400 27004KT P6SM SKC

Nov-15@
06:00 UTC

Nov-15 @ 06:00 UTC

Nov-15@
14:00 UTC

Nov-15 @ 14:00 UTC

KIPT 150522Z 1506/1606 00000KT P6SM SKC
Cloud Levels
  • Clear skies

Nov-15@
14:00 UTC

Nov-15 @ 14:00 UTC

Nov-16@
06:00 UTC

Nov-16 @ 06:00 UTC

FM151400 27004KT P6SM SKC

From

From Standard forecast or significant change

Wind
  • 270° at 4 KTS
Cloud Levels
  • Clear skies